SWA3757 KCOS-KPHX
Flight info
| Callsign | SWA3757 |
|---|---|
| Flight time | 1h 27m |
| Altitude | 36000 |
| Route | DRAKE V83 PUB ALS J102 GUP EAGUL6 |
| Aircraft | B737/M-SDE2E3GIJ4RWZ/LB1D1 |
Departure
| Time | 2026-04-22 16:14 |
|---|---|
| Airport | City of Colorado Springs Municipal Airport (KCOS) |
Arrival
| Time | 2026-04-22 17:41 |
|---|---|
| Airport | Phoenix Sky Harbor International Airport (KPHX) |
| Time | Latitude | Longitude | Altitude | Speed | Heading |
|---|---|---|---|---|---|
| 2026-04-22 16:07 | 38.80279 | -104.69743 | 6150 ft | 16 kts | 90° |
| 2026-04-22 16:08 | 38.80279 | -104.69598 | 6150 ft | 17 kts | 90° |
| 2026-04-22 16:08 | 38.80278 | -104.69442 | 6150 ft | 18 kts | 90° |
| 2026-04-22 16:08 | 38.80277 | -104.69281 | 6150 ft | 18 kts | 90° |
| 2026-04-22 16:08 | 38.80278 | -104.69127 | 6150 ft | 17 kts | 89° |
| 2026-04-22 16:09 | 38.80279 | -104.68977 | 6150 ft | 17 kts | 90° |
| 2026-04-22 16:09 | 38.80281 | -104.68833 | 6150 ft | 16 kts | 79° |
| 2026-04-22 16:09 | 38.80372 | -104.68787 | 6152 ft | 15 kts | 359° |
| 2026-04-22 16:09 | 38.80478 | -104.68787 | 6154 ft | 16 kts | 0° |
| 2026-04-22 16:10 | 38.80599 | -104.68787 | 6156 ft | 19 kts | 0° |
| 2026-04-22 16:10 | 38.80732 | -104.68786 | 6158 ft | 19 kts | 360° |
| 2026-04-22 16:10 | 38.80860 | -104.68786 | 6160 ft | 18 kts | 360° |
| 2026-04-22 16:10 | 38.80983 | -104.68786 | 6162 ft | 17 kts | 360° |
| 2026-04-22 16:11 | 38.81102 | -104.68786 | 6164 ft | 17 kts | 360° |
| 2026-04-22 16:11 | 38.81217 | -104.68786 | 6166 ft | 16 kts | 360° |
| 2026-04-22 16:11 | 38.81328 | -104.68786 | 6167 ft | 16 kts | 360° |
| 2026-04-22 16:11 | 38.81434 | -104.68786 | 6172 ft | 15 kts | 360° |
| 2026-04-22 16:12 | 38.81536 | -104.68786 | 6174 ft | 14 kts | 360° |
| 2026-04-22 16:12 | 38.81600 | -104.68718 | 6172 ft | 14 kts | 90° |
| 2026-04-22 16:12 | 38.81592 | -104.68600 | 6176 ft | 13 kts | 120° |
| 2026-04-22 16:12 | 38.81509 | -104.68572 | 6173 ft | 13 kts | 180° |
| 2026-04-22 16:13 | 38.81318 | -104.68575 | 6167 ft | 55 kts | 180° |
| 2026-04-22 16:13 | 38.80733 | -104.68576 | 6158 ft | 111 kts | 180° |
| 2026-04-22 16:13 | 38.79799 | -104.68574 | 6162 ft | 154 kts | 181° |
| 2026-04-22 16:13 | 38.78694 | -104.68562 | 6745 ft | 156 kts | 180° |
| 2026-04-22 16:14 | 38.77583 | -104.68529 | 7225 ft | 168 kts | 177° |
| 2026-04-22 16:14 | 38.76427 | -104.67895 | 7493 ft | 205 kts | 140° |
| 2026-04-22 16:14 | 38.75488 | -104.66327 | 7721 ft | 238 kts | 129° |
| 2026-04-22 16:14 | 38.74461 | -104.64484 | 7971 ft | 268 kts | 130° |
| 2026-04-22 16:15 | 38.73280 | -104.62498 | 8407 ft | 289 kts | 130° |
| 2026-04-22 16:15 | 38.72050 | -104.60449 | 9161 ft | 298 kts | 131° |
| 2026-04-22 16:15 | 38.70772 | -104.58316 | 9959 ft | 306 kts | 131° |
| 2026-04-22 16:15 | 38.69448 | -104.56100 | 10498 ft | 325 kts | 131° |
| 2026-04-22 16:16 | 38.68016 | -104.53704 | 10657 ft | 353 kts | 131° |
| 2026-04-22 16:16 | 38.66483 | -104.51126 | 10915 ft | 371 kts | 131° |
| 2026-04-22 16:16 | 38.64909 | -104.48475 | 11640 ft | 377 kts | 131° |
| 2026-04-22 16:16 | 38.63318 | -104.45798 | 12546 ft | 378 kts | 131° |
| 2026-04-22 16:17 | 38.61532 | -104.43370 | 13427 ft | 373 kts | 149° |
| 2026-04-22 16:17 | 38.59241 | -104.41941 | 14254 ft | 365 kts | 168° |
| 2026-04-22 16:17 | 38.56758 | -104.41484 | 15066 ft | 361 kts | 183° |
| 2026-04-22 16:17 | 38.54235 | -104.41568 | 15896 ft | 363 kts | 185° |
| 2026-04-22 16:18 | 38.51694 | -104.41731 | 16680 ft | 367 kts | 185° |
| 2026-04-22 16:18 | 38.49122 | -104.41903 | 17467 ft | 371 kts | 185° |
| 2026-04-22 16:18 | 38.46529 | -104.42060 | 18242 ft | 375 kts | 184° |
| 2026-04-22 16:18 | 38.43908 | -104.42203 | 18901 ft | 379 kts | 184° |
| 2026-04-22 16:19 | 38.41255 | -104.42336 | 19554 ft | 384 kts | 184° |
| 2026-04-22 16:19 | 38.38574 | -104.42465 | 20247 ft | 387 kts | 184° |
| 2026-04-22 16:19 | 38.35873 | -104.42593 | 20979 ft | 389 kts | 185° |
| 2026-04-22 16:19 | 38.33163 | -104.42734 | 21599 ft | 392 kts | 187° |
| 2026-04-22 16:20 | 38.30505 | -104.43515 | 22164 ft | 393 kts | 204° |
| 2026-04-22 16:20 | 38.28116 | -104.45194 | 22824 ft | 393 kts | 217° |
| 2026-04-22 16:20 | 38.26120 | -104.47571 | 23457 ft | 395 kts | 229° |
| 2026-04-22 16:20 | 38.24330 | -104.50242 | 23985 ft | 398 kts | 230° |
| 2026-04-22 16:21 | 38.22569 | -104.52930 | 24473 ft | 401 kts | 230° |
| 2026-04-22 16:21 | 38.20781 | -104.55665 | 24952 ft | 404 kts | 230° |
| 2026-04-22 16:21 | 38.18969 | -104.58423 | 25380 ft | 408 kts | 230° |
| 2026-04-22 16:21 | 38.17132 | -104.61197 | 25834 ft | 411 kts | 230° |
| 2026-04-22 16:22 | 38.13415 | -104.66767 | 26765 ft | 416 kts | 229° |
| 2026-04-22 16:22 | 38.11529 | -104.69577 | 27203 ft | 418 kts | 229° |
| 2026-04-22 16:22 | 38.09635 | -104.72395 | 27636 ft | 421 kts | 229° |
| 2026-04-22 16:23 | 38.05806 | -104.78078 | 28436 ft | 426 kts | 229° |
| 2026-04-22 16:23 | 38.03872 | -104.80946 | 28816 ft | 429 kts | 229° |
| 2026-04-22 16:23 | 38.01926 | -104.83828 | 29207 ft | 431 kts | 229° |
| 2026-04-22 16:24 | 37.99981 | -104.86707 | 29759 ft | 429 kts | 229° |
| 2026-04-22 16:24 | 37.96155 | -104.92362 | 30884 ft | 422 kts | 229° |
| 2026-04-22 16:24 | 37.94239 | -104.95192 | 31399 ft | 421 kts | 229° |
| 2026-04-22 16:25 | 37.92331 | -104.98006 | 31804 ft | 421 kts | 229° |
| 2026-04-22 16:25 | 37.88534 | -105.03599 | 32796 ft | 415 kts | 229° |
| 2026-04-22 16:25 | 37.86657 | -105.06360 | 33319 ft | 413 kts | 229° |
| 2026-04-22 16:26 | 37.84783 | -105.09114 | 33818 ft | 411 kts | 229° |
| 2026-04-22 16:26 | 37.82920 | -105.11850 | 34202 ft | 410 kts | 229° |
| 2026-04-22 16:26 | 37.81057 | -105.14584 | 34590 ft | 408 kts | 229° |
| 2026-04-22 16:26 | 37.79209 | -105.17294 | 34973 ft | 406 kts | 229° |
| 2026-04-22 16:27 | 37.77372 | -105.19985 | 35312 ft | 405 kts | 229° |
| 2026-04-22 16:27 | 37.75531 | -105.22679 | 35659 ft | 404 kts | 229° |
| 2026-04-22 16:27 | 37.73692 | -105.25368 | 35923 ft | 405 kts | 229° |
| 2026-04-22 16:27 | 37.71860 | -105.28045 | 35898 ft | 409 kts | 229° |
| 2026-04-22 16:28 | 37.68137 | -105.33479 | 35913 ft | 409 kts | 227° |
| 2026-04-22 16:28 | 37.64403 | -105.38920 | 35915 ft | 408 kts | 227° |
| 2026-04-22 16:29 | 37.60691 | -105.44321 | 35924 ft | 407 kts | 227° |
| 2026-04-22 16:29 | 37.56973 | -105.49719 | 35956 ft | 408 kts | 227° |
| 2026-04-22 16:30 | 37.53245 | -105.55125 | 36016 ft | 409 kts | 227° |
| 2026-04-22 16:30 | 37.49502 | -105.60542 | 36039 ft | 410 kts | 227° |
| 2026-04-22 16:31 | 37.45754 | -105.65959 | 36090 ft | 410 kts | 227° |
| 2026-04-22 16:31 | 37.42024 | -105.71341 | 36112 ft | 411 kts | 227° |
| 2026-04-22 16:32 | 37.38262 | -105.76763 | 36133 ft | 411 kts | 227° |
| 2026-04-22 16:32 | 37.34524 | -105.82194 | 36130 ft | 411 kts | 230° |
| 2026-04-22 16:33 | 37.31104 | -105.87952 | 36112 ft | 411 kts | 231° |
| 2026-04-22 16:33 | 37.27730 | -105.93758 | 36081 ft | 411 kts | 231° |
| 2026-04-22 16:34 | 37.26045 | -105.96646 | 35937 ft | 411 kts | 231° |
| 2026-04-22 16:34 | 37.24350 | -105.99542 | 35937 ft | 411 kts | 231° |
| 2026-04-22 16:34 | 37.20960 | -106.05308 | 35943 ft | 411 kts | 232° |
| 2026-04-22 16:35 | 37.17561 | -106.11068 | 35947 ft | 410 kts | 232° |
| 2026-04-22 16:35 | 37.14185 | -106.16778 | 35955 ft | 410 kts | 232° |
| 2026-04-22 16:36 | 37.10789 | -106.22512 | 35978 ft | 409 kts | 232° |
| 2026-04-22 16:36 | 37.07386 | -106.28247 | 35981 ft | 410 kts | 232° |
| 2026-04-22 16:37 | 37.03986 | -106.33967 | 35967 ft | 409 kts | 232° |
| 2026-04-22 16:37 | 37.00579 | -106.39691 | 35999 ft | 412 kts | 233° |
| 2026-04-22 16:38 | 36.97144 | -106.45453 | 36011 ft | 414 kts | 233° |
| 2026-04-22 16:38 | 36.93680 | -106.51253 | 36009 ft | 418 kts | 233° |
| 2026-04-22 16:39 | 36.90192 | -106.57081 | 36008 ft | 419 kts | 233° |
| 2026-04-22 16:39 | 36.86713 | -106.62885 | 36005 ft | 420 kts | 233° |
| 2026-04-22 16:40 | 36.83205 | -106.68729 | 35998 ft | 420 kts | 233° |
| 2026-04-22 16:41 | 36.77945 | -106.77467 | 35997 ft | 419 kts | 235° |
| 2026-04-22 16:41 | 36.74450 | -106.83264 | 35990 ft | 418 kts | 235° |
| 2026-04-22 16:42 | 36.70960 | -106.89043 | 35971 ft | 417 kts | 236° |
| 2026-04-22 16:42 | 36.67475 | -106.94802 | 35977 ft | 415 kts | 236° |
| 2026-04-22 16:43 | 36.64005 | -107.00527 | 35976 ft | 414 kts | 235° |
| 2026-04-22 16:43 | 36.60531 | -107.06251 | 36007 ft | 413 kts | 236° |
| 2026-04-22 16:44 | 36.57069 | -107.11944 | 35987 ft | 412 kts | 237° |
| 2026-04-22 16:44 | 36.53639 | -107.17576 | 35979 ft | 410 kts | 237° |
| 2026-04-22 16:45 | 36.50192 | -107.23227 | 35986 ft | 409 kts | 237° |
| 2026-04-22 16:45 | 36.46755 | -107.28852 | 35985 ft | 408 kts | 237° |
| 2026-04-22 16:46 | 36.43315 | -107.34473 | 35968 ft | 408 kts | 237° |
| 2026-04-22 16:46 | 36.39888 | -107.40066 | 36000 ft | 407 kts | 237° |
| 2026-04-22 16:47 | 36.36463 | -107.45650 | 35989 ft | 406 kts | 237° |
| 2026-04-22 16:47 | 36.33621 | -107.50278 | 35978 ft | 405 kts | 237° |
| 2026-04-22 16:48 | 36.29652 | -107.56728 | 35984 ft | 403 kts | 237° |
| 2026-04-22 16:48 | 36.26249 | -107.62253 | 35980 ft | 403 kts | 237° |
| 2026-04-22 16:49 | 36.22849 | -107.67762 | 35979 ft | 403 kts | 237° |
| 2026-04-22 16:49 | 36.19433 | -107.73279 | 35980 ft | 403 kts | 237° |
| 2026-04-22 16:50 | 36.16022 | -107.78774 | 35964 ft | 402 kts | 238° |
| 2026-04-22 16:50 | 36.12611 | -107.84262 | 35958 ft | 402 kts | 238° |
| 2026-04-22 16:51 | 36.09226 | -107.89702 | 35942 ft | 401 kts | 238° |
| 2026-04-22 16:51 | 36.05824 | -107.95162 | 35948 ft | 401 kts | 238° |
| 2026-04-22 16:52 | 36.02965 | -107.99745 | 35939 ft | 401 kts | 237° |
| 2026-04-22 16:52 | 35.99577 | -108.05168 | 35922 ft | 401 kts | 237° |
| 2026-04-22 16:53 | 35.96160 | -108.10627 | 35925 ft | 402 kts | 237° |
| 2026-04-22 16:53 | 35.92731 | -108.16096 | 35901 ft | 402 kts | 237° |
| 2026-04-22 16:54 | 35.89302 | -108.21558 | 35907 ft | 403 kts | 237° |
| 2026-04-22 16:54 | 35.85865 | -108.27023 | 35900 ft | 403 kts | 237° |
| 2026-04-22 16:55 | 35.82430 | -108.32476 | 35905 ft | 403 kts | 237° |
| 2026-04-22 16:55 | 35.78977 | -108.37949 | 35883 ft | 403 kts | 237° |
| 2026-04-22 16:56 | 35.75552 | -108.43369 | 35883 ft | 404 kts | 237° |
| 2026-04-22 16:56 | 35.72105 | -108.48814 | 35881 ft | 402 kts | 238° |
| 2026-04-22 16:57 | 35.68669 | -108.54234 | 35877 ft | 400 kts | 238° |
| 2026-04-22 16:57 | 35.65251 | -108.59617 | 35833 ft | 399 kts | 238° |
| 2026-04-22 16:58 | 35.61827 | -108.64984 | 35836 ft | 397 kts | 238° |
| 2026-04-22 16:58 | 35.58439 | -108.70318 | 35864 ft | 395 kts | 238° |
| 2026-04-22 16:59 | 35.55058 | -108.75627 | 36202 ft | 394 kts | 238° |
| 2026-04-22 16:59 | 35.51682 | -108.80916 | 36198 ft | 393 kts | 238° |
| 2026-04-22 17:00 | 35.48307 | -108.86192 | 36169 ft | 393 kts | 238° |
| 2026-04-22 17:00 | 35.42796 | -108.93714 | 36123 ft | 398 kts | 233° |
| 2026-04-22 17:01 | 35.38939 | -108.98595 | 36084 ft | 399 kts | 232° |
| 2026-04-22 17:01 | 35.35081 | -109.03525 | 36009 ft | 401 kts | 233° |
| 2026-04-22 17:02 | 35.31256 | -109.08448 | 35958 ft | 402 kts | 233° |
| 2026-04-22 17:02 | 35.27396 | -109.13424 | 35934 ft | 403 kts | 233° |
| 2026-04-22 17:03 | 35.23533 | -109.18398 | 35946 ft | 403 kts | 233° |
| 2026-04-22 17:03 | 35.19671 | -109.23363 | 35946 ft | 403 kts | 233° |
| 2026-04-22 17:04 | 35.15802 | -109.28330 | 35949 ft | 402 kts | 233° |
| 2026-04-22 17:04 | 35.11939 | -109.33282 | 35953 ft | 402 kts | 233° |
| 2026-04-22 17:05 | 35.08072 | -109.38232 | 35958 ft | 403 kts | 233° |
| 2026-04-22 17:05 | 35.04202 | -109.43179 | 35953 ft | 403 kts | 233° |
| 2026-04-22 17:06 | 35.00330 | -109.48121 | 35954 ft | 403 kts | 232° |
| 2026-04-22 17:06 | 34.96477 | -109.53031 | 35954 ft | 403 kts | 232° |
| 2026-04-22 17:07 | 34.92596 | -109.57971 | 35948 ft | 403 kts | 232° |
| 2026-04-22 17:07 | 34.88718 | -109.62900 | 35950 ft | 403 kts | 232° |
| 2026-04-22 17:08 | 34.84840 | -109.67822 | 35942 ft | 403 kts | 232° |
| 2026-04-22 17:08 | 34.80965 | -109.72746 | 35949 ft | 402 kts | 232° |
| 2026-04-22 17:09 | 34.77100 | -109.77672 | 35951 ft | 402 kts | 232° |
| 2026-04-22 17:09 | 34.73226 | -109.82600 | 35965 ft | 402 kts | 232° |
| 2026-04-22 17:10 | 34.69853 | -109.87895 | 35959 ft | 391 kts | 248° |
| 2026-04-22 17:10 | 34.67622 | -109.93907 | 35971 ft | 390 kts | 250° |
| 2026-04-22 17:11 | 34.65441 | -109.99939 | 35967 ft | 390 kts | 249° |
| 2026-04-22 17:11 | 34.63238 | -110.05916 | 35964 ft | 390 kts | 249° |
| 2026-04-22 17:12 | 34.61000 | -110.11917 | 35970 ft | 390 kts | 249° |
| 2026-04-22 17:12 | 34.58761 | -110.17896 | 35979 ft | 389 kts | 249° |
| 2026-04-22 17:13 | 34.56517 | -110.23877 | 35986 ft | 389 kts | 249° |
| 2026-04-22 17:13 | 34.55393 | -110.26869 | 35834 ft | 392 kts | 249° |
| 2026-04-22 17:13 | 34.54250 | -110.29912 | 35186 ft | 397 kts | 248° |
| 2026-04-22 17:14 | 34.53105 | -110.32955 | 34437 ft | 397 kts | 248° |
| 2026-04-22 17:14 | 34.51957 | -110.36002 | 33610 ft | 398 kts | 248° |
| 2026-04-22 17:14 | 34.50814 | -110.39034 | 33231 ft | 387 kts | 248° |
| 2026-04-22 17:14 | 34.49708 | -110.41957 | 32992 ft | 376 kts | 248° |
| 2026-04-22 17:15 | 34.48992 | -110.43849 | 32777 ft | 370 kts | 248° |
| 2026-04-22 17:15 | 34.47561 | -110.47635 | 32250 ft | 379 kts | 248° |
| 2026-04-22 17:15 | 34.46447 | -110.50582 | 31830 ft | 388 kts | 248° |
| 2026-04-22 17:15 | 34.45317 | -110.53565 | 31422 ft | 388 kts | 248° |
| 2026-04-22 17:16 | 34.44194 | -110.56522 | 30986 ft | 385 kts | 248° |
| 2026-04-22 17:16 | 34.43076 | -110.59466 | 30577 ft | 383 kts | 248° |
| 2026-04-22 17:16 | 34.41964 | -110.62390 | 30165 ft | 381 kts | 247° |
| 2026-04-22 17:16 | 34.40858 | -110.65299 | 29698 ft | 379 kts | 247° |
| 2026-04-22 17:17 | 34.39760 | -110.68183 | 29248 ft | 376 kts | 247° |
| 2026-04-22 17:17 | 34.38667 | -110.71054 | 28830 ft | 373 kts | 247° |
| 2026-04-22 17:17 | 34.37584 | -110.73897 | 28417 ft | 371 kts | 247° |
| 2026-04-22 17:17 | 34.36507 | -110.76718 | 28010 ft | 368 kts | 247° |
| 2026-04-22 17:18 | 34.35359 | -110.79481 | 27592 ft | 368 kts | 240° |
| 2026-04-22 17:18 | 34.33739 | -110.81890 | 27245 ft | 369 kts | 231° |
| 2026-04-22 17:18 | 34.31981 | -110.84145 | 26821 ft | 368 kts | 230° |
| 2026-04-22 17:18 | 34.30215 | -110.86374 | 26419 ft | 366 kts | 230° |
| 2026-04-22 17:19 | 34.26713 | -110.90824 | 25627 ft | 364 kts | 230° |
| 2026-04-22 17:19 | 34.23262 | -110.95261 | 24864 ft | 360 kts | 230° |
| 2026-04-22 17:20 | 34.19850 | -110.99663 | 24101 ft | 357 kts | 230° |
| 2026-04-22 17:20 | 34.16504 | -111.03979 | 23273 ft | 351 kts | 230° |
| 2026-04-22 17:21 | 34.14849 | -111.06109 | 22859 ft | 344 kts | 230° |
| 2026-04-22 17:21 | 34.11636 | -111.10239 | 22113 ft | 331 kts | 230° |
| 2026-04-22 17:22 | 34.08542 | -111.14211 | 21415 ft | 321 kts | 230° |
| 2026-04-22 17:22 | 34.07014 | -111.16173 | 21061 ft | 320 kts | 230° |
| 2026-04-22 17:22 | 34.03958 | -111.20097 | 20368 ft | 326 kts | 230° |
| 2026-04-22 17:23 | 34.02369 | -111.22140 | 20013 ft | 340 kts | 230° |
| 2026-04-22 17:23 | 33.99072 | -111.26363 | 19222 ft | 347 kts | 230° |
| 2026-04-22 17:23 | 33.97418 | -111.28476 | 18827 ft | 346 kts | 229° |
| 2026-04-22 17:24 | 33.95772 | -111.30581 | 18432 ft | 344 kts | 229° |
| 2026-04-22 17:24 | 33.94137 | -111.32668 | 18001 ft | 340 kts | 229° |
| 2026-04-22 17:24 | 33.92531 | -111.34721 | 17588 ft | 334 kts | 229° |
| 2026-04-22 17:24 | 33.90949 | -111.36740 | 17188 ft | 329 kts | 229° |
| 2026-04-22 17:25 | 33.89402 | -111.38712 | 16809 ft | 327 kts | 230° |
| 2026-04-22 17:25 | 33.87850 | -111.40741 | 16412 ft | 324 kts | 233° |
| 2026-04-22 17:25 | 33.86576 | -111.42946 | 16073 ft | 319 kts | 239° |
| 2026-04-22 17:25 | 33.85423 | -111.45228 | 15718 ft | 319 kts | 240° |
| 2026-04-22 17:26 | 33.84299 | -111.47485 | 15375 ft | 319 kts | 240° |
| 2026-04-22 17:26 | 33.83141 | -111.49766 | 15037 ft | 320 kts | 240° |
| 2026-04-22 17:26 | 33.81965 | -111.52036 | 14691 ft | 320 kts | 239° |
| 2026-04-22 17:26 | 33.80775 | -111.54306 | 14319 ft | 319 kts | 239° |
| 2026-04-22 17:27 | 33.79589 | -111.56560 | 13983 ft | 318 kts | 239° |
| 2026-04-22 17:27 | 33.78404 | -111.58795 | 13722 ft | 315 kts | 239° |
| 2026-04-22 17:27 | 33.77226 | -111.61003 | 13425 ft | 313 kts | 239° |
| 2026-04-22 17:27 | 33.76058 | -111.63193 | 13153 ft | 310 kts | 238° |
| 2026-04-22 17:28 | 33.74899 | -111.65366 | 12922 ft | 307 kts | 238° |
| 2026-04-22 17:28 | 33.73749 | -111.67524 | 12669 ft | 306 kts | 238° |
| 2026-04-22 17:28 | 33.72599 | -111.69678 | 12432 ft | 307 kts | 238° |
| 2026-04-22 17:28 | 33.71441 | -111.71846 | 12187 ft | 309 kts | 238° |
| 2026-04-22 17:29 | 33.70278 | -111.74025 | 11929 ft | 310 kts | 238° |
| 2026-04-22 17:29 | 33.69118 | -111.76211 | 11648 ft | 310 kts | 238° |
| 2026-04-22 17:29 | 33.67957 | -111.78400 | 11372 ft | 310 kts | 238° |
| 2026-04-22 17:29 | 33.66798 | -111.80586 | 11106 ft | 310 kts | 238° |
| 2026-04-22 17:30 | 33.65642 | -111.82767 | 10806 ft | 305 kts | 238° |
| 2026-04-22 17:30 | 33.64532 | -111.84856 | 10533 ft | 296 kts | 238° |
| 2026-04-22 17:30 | 33.63441 | -111.86908 | 10262 ft | 287 kts | 237° |
| 2026-04-22 17:30 | 33.62386 | -111.88891 | 9985 ft | 276 kts | 238° |
| 2026-04-22 17:31 | 33.61384 | -111.90774 | 9694 ft | 266 kts | 237° |
| 2026-04-22 17:31 | 33.60398 | -111.92626 | 9509 ft | 256 kts | 237° |
| 2026-04-22 17:31 | 33.59477 | -111.94356 | 9427 ft | 238 kts | 237° |
| 2026-04-22 17:31 | 33.58615 | -111.95973 | 9262 ft | 222 kts | 237° |
| 2026-04-22 17:32 | 33.57769 | -111.97562 | 8710 ft | 226 kts | 237° |
| 2026-04-22 17:32 | 33.56931 | -111.99134 | 8364 ft | 220 kts | 237° |
| 2026-04-22 17:32 | 33.56120 | -112.00658 | 8103 ft | 214 kts | 237° |
| 2026-04-22 17:32 | 33.55317 | -112.02163 | 7837 ft | 214 kts | 237° |
| 2026-04-22 17:33 | 33.54753 | -112.03164 | 7614 ft | 214 kts | 230° |
| 2026-04-22 17:33 | 33.53068 | -112.04174 | 7359 ft | 204 kts | 184° |
| 2026-04-22 17:33 | 33.51745 | -112.03702 | 7216 ft | 201 kts | 148° |
| 2026-04-22 17:33 | 33.50903 | -112.02365 | 6856 ft | 209 kts | 111° |
| 2026-04-22 17:34 | 33.50769 | -112.00621 | 6531 ft | 210 kts | 91° |
| 2026-04-22 17:34 | 33.50824 | -111.98869 | 6188 ft | 209 kts | 90° |
| 2026-04-22 17:34 | 33.50891 | -111.97145 | 5877 ft | 206 kts | 90° |
| 2026-04-22 17:34 | 33.50960 | -111.95431 | 5560 ft | 206 kts | 90° |
| 2026-04-22 17:35 | 33.51030 | -111.93733 | 5257 ft | 202 kts | 90° |
| 2026-04-22 17:35 | 33.51103 | -111.92053 | 4900 ft | 201 kts | 89° |
| 2026-04-22 17:35 | 33.51180 | -111.90393 | 4582 ft | 198 kts | 90° |
| 2026-04-22 17:35 | 33.51256 | -111.88743 | 4220 ft | 198 kts | 90° |
| 2026-04-22 17:36 | 33.51326 | -111.87105 | 3900 ft | 195 kts | 89° |
| 2026-04-22 17:36 | 33.51375 | -111.85481 | 3568 ft | 194 kts | 96° |
| 2026-04-22 17:36 | 33.50934 | -111.84028 | 3174 ft | 186 kts | 135° |
| 2026-04-22 17:36 | 33.49871 | -111.83308 | 3084 ft | 188 kts | 170° |
| 2026-04-22 17:37 | 33.48508 | -111.83075 | 3061 ft | 191 kts | 174° |
| 2026-04-22 17:37 | 33.47197 | -111.82892 | 3002 ft | 187 kts | 175° |
| 2026-04-22 17:37 | 33.45959 | -111.83152 | 3000 ft | 182 kts | 212° |
| 2026-04-22 17:37 | 33.45109 | -111.84278 | 3032 ft | 186 kts | 237° |
| 2026-04-22 17:38 | 33.44454 | -111.85628 | 3011 ft | 187 kts | 239° |
| 2026-04-22 17:38 | 33.44119 | -111.86590 | 2986 ft | 186 kts | 259° |
| 2026-04-22 17:38 | 33.44089 | -111.88126 | 2917 ft | 186 kts | 268° |
| 2026-04-22 17:38 | 33.44085 | -111.89661 | 2724 ft | 179 kts | 268° |
| 2026-04-22 17:39 | 33.44082 | -111.91083 | 2573 ft | 166 kts | 268° |
| 2026-04-22 17:39 | 33.44087 | -111.92433 | 2329 ft | 156 kts | 267° |
| 2026-04-22 17:39 | 33.44092 | -111.94896 | 1892 ft | 144 kts | 269° |
| 2026-04-22 17:40 | 33.44088 | -111.96100 | 1679 ft | 142 kts | 269° |
| 2026-04-22 17:40 | 33.44087 | -111.97264 | 1494 ft | 143 kts | 270° |
| 2026-04-22 17:40 | 33.44087 | -111.98455 | 1293 ft | 141 kts | 270° |
| 2026-04-22 17:40 | 33.44084 | -111.99616 | 1139 ft | 135 kts | 270° |
| 2026-04-22 17:41 | 33.44084 | -112.00549 | 1127 ft | 82 kts | 270° |
| 2026-04-22 17:41 | 33.44084 | -112.00966 | 1129 ft | 18 kts | 269° |
| 2026-04-22 17:41 | 33.44069 | -112.01044 | 1129 ft | 10 kts | 244° |
| 2026-04-22 17:41 | 33.44012 | -112.01088 | 1123 ft | 11 kts | 174° |
| 2026-04-22 17:42 | 33.43975 | -112.01010 | 1124 ft | 12 kts | 90° |
| 2026-04-22 17:42 | 33.43976 | -112.00914 | 1125 ft | 11 kts | 90° |
| 2026-04-22 17:42 | 33.43975 | -112.00821 | 1119 ft | 11 kts | 91° |
| 2026-04-22 17:42 | 33.43974 | -112.00716 | 1125 ft | 15 kts | 89° |
| 2026-04-22 17:43 | 33.43975 | -112.00586 | 1122 ft | 16 kts | 90° |
| 2026-04-22 17:43 | 33.43975 | -112.00458 | 1119 ft | 15 kts | 90° |
| 2026-04-22 17:43 | 33.43921 | -112.00379 | 1119 ft | 15 kts | 181° |
| 2026-04-22 17:43 | 33.43810 | -112.00379 | 1121 ft | 17 kts | 179° |
| 2026-04-22 17:44 | 33.43687 | -112.00379 | 1119 ft | 18 kts | 180° |
| 2026-04-22 17:44 | 33.43567 | -112.00379 | 1120 ft | 17 kts | 180° |
| 2026-04-22 17:44 | 33.43451 | -112.00380 | 1123 ft | 15 kts | 180° |
| 2026-04-22 17:44 | 33.43400 | -112.00314 | 1117 ft | 13 kts | 86° |
| 2026-04-22 17:45 | 33.43402 | -112.00264 | 1123 ft | 2 kts | 90° |
| 2026-04-22 17:45 | 33.43402 | -112.00263 | 1123 ft | 0 kts | 90° |